sensor_id;sensor_type;location;lat;lon;timestamp;pressure;altitude;pressure_sealevel;temperature;humidity
59063;BME280;44851;45.648;9.004;2024-02-21T00:01:35;99865.44;;;8.64;62.98
59063;BME280;44851;45.648;9.004;2024-02-21T00:04:01;99865.66;;;8.48;63.63
59063;BME280;44851;45.648;9.004;2024-02-21T00:06:26;99864.19;;;8.70;63.20
59063;BME280;44851;45.648;9.004;2024-02-21T00:08:51;99866.47;;;8.74;63.47
59063;BME280;44851;45.648;9.004;2024-02-21T00:11:17;99860.34;;;8.75;62.35
59063;BME280;44851;45.648;9.004;2024-02-21T00:13:42;99860.84;;;8.81;62.76
59063;BME280;44851;45.648;9.004;2024-02-21T00:16:07;99847.97;;;8.66;62.92
59063;BME280;44851;45.648;9.004;2024-02-21T00:18:33;99841.75;;;8.56;63.28
59063;BME280;44851;45.648;9.004;2024-02-21T00:20:58;99855.91;;;8.39;63.43
59063;BME280;44851;45.648;9.004;2024-02-21T00:23:23;99846.66;;;8.35;64.02
59063;BME280;44851;45.648;9.004;2024-02-21T00:25:49;99840.13;;;8.42;64.40
59063;BME280;44851;45.648;9.004;2024-02-21T00:28:14;99844.56;;;8.40;64.04
59063;BME280;44851;45.648;9.004;2024-02-21T00:30:40;99841.03;;;8.29;64.76
59063;BME280;44851;45.648;9.004;2024-02-21T00:33:05;99841.75;;;8.31;64.59
59063;BME280;44851;45.648;9.004;2024-02-21T00:35:30;99844.78;;;8.24;64.58
59063;BME280;44851;45.648;9.004;2024-02-21T00:37:55;99850.09;;;8.10;64.94
59063;BME280;44851;45.648;9.004;2024-02-21T00:40:22;99846.31;;;8.02;65.83
59063;BME280;44851;45.648;9.004;2024-02-21T00:42:48;99853.22;;;8.15;64.50
59063;BME280;44851;45.648;9.004;2024-02-21T00:45:13;99845.72;;;8.23;64.63
59063;BME280;44851;45.648;9.004;2024-02-21T00:47:39;99861.72;;;8.17;64.30
59063;BME280;44851;45.648;9.004;2024-02-21T00:50:04;99849.22;;;8.10;64.80
59063;BME280;44851;45.648;9.004;2024-02-21T00:52:30;99852.56;;;8.24;64.11
59063;BME280;44851;45.648;9.004;2024-02-21T00:54:55;99847.38;;;8.12;64.13
59063;BME280;44851;45.648;9.004;2024-02-21T00:57:20;99850.38;;;8.06;63.54
59063;BME280;44851;45.648;9.004;2024-02-21T00:59:46;99849.84;;;8.13;63.29
59063;BME280;44851;45.648;9.004;2024-02-21T01:02:11;99846.84;;;8.19;63.94
59063;BME280;44851;45.648;9.004;2024-02-21T01:04:36;99850.78;;;8.25;63.51
59063;BME280;44851;45.648;9.004;2024-02-21T01:07:02;99851.09;;;8.20;63.45
59063;BME280;44851;45.648;9.004;2024-02-21T01:09:27;99858.16;;;8.31;63.38
59063;BME280;44851;45.648;9.004;2024-02-21T01:11:53;99848.13;;;8.27;63.04
59063;BME280;44851;45.648;9.004;2024-02-21T01:14:18;99851.09;;;8.08;63.62
59063;BME280;44851;45.648;9.004;2024-02-21T01:16:43;99844.63;;;7.88;63.83
59063;BME280;44851;45.648;9.004;2024-02-21T01:19:09;99841.72;;;7.80;64.62
59063;BME280;44851;45.648;9.004;2024-02-21T01:21:34;99836.84;;;7.75;64.27
59063;BME280;44851;45.648;9.004;2024-02-21T01:23:59;99841.09;;;7.76;64.01
59063;BME280;44851;45.648;9.004;2024-02-21T01:26:24;99840.06;;;7.79;64.44
59063;BME280;44851;45.648;9.004;2024-02-21T01:28:50;99835.34;;;7.71;64.38
59063;BME280;44851;45.648;9.004;2024-02-21T01:31:15;99840.75;;;7.68;63.82
59063;BME280;44851;45.648;9.004;2024-02-21T01:33:41;99838.38;;;7.78;63.70
59063;BME280;44851;45.648;9.004;2024-02-21T01:36:06;99848.97;;;7.75;63.74
59063;BME280;44851;45.648;9.004;2024-02-21T01:38:32;99851.59;;;7.87;63.93
59063;BME280;44851;45.648;9.004;2024-02-21T01:40:58;99843.56;;;7.78;63.40
59063;BME280;44851;45.648;9.004;2024-02-21T01:43:23;99844.13;;;7.56;62.55
59063;BME280;44851;45.648;9.004;2024-02-21T01:45:50;99849.66;;;7.64;63.21
59063;BME280;44851;45.648;9.004;2024-02-21T01:48:18;99843.09;;;7.58;63.32
59063;BME280;44851;45.648;9.004;2024-02-21T01:50:45;99850.66;;;7.61;62.61
59063;BME280;44851;45.648;9.004;2024-02-21T01:53:11;99845.47;;;7.61;62.70
59063;BME280;44851;45.648;9.004;2024-02-21T01:55:43;99843.09;;;7.58;62.14
59063;BME280;44851;45.648;9.004;2024-02-21T01:58:09;99847.41;;;7.45;62.62
59063;BME280;44851;45.648;9.004;2024-02-21T02:00:36;99840.91;;;7.52;62.48
59063;BME280;44851;45.648;9.004;2024-02-21T02:03:02;99845.75;;;7.44;62.08
59063;BME280;44851;45.648;9.004;2024-02-21T02:05:28;99847.91;;;7.37;61.90
59063;BME280;44851;45.648;9.004;2024-02-21T02:07:53;99846.78;;;7.41;61.43
59063;BME280;44851;45.648;9.004;2024-02-21T02:10:19;99843.59;;;7.24;61.10
59063;BME280;44851;45.648;9.004;2024-02-21T02:12:44;99842.91;;;7.34;61.85
59063;BME280;44851;45.648;9.004;2024-02-21T02:15:11;99839.63;;;7.45;61.53
59063;BME280;44851;45.648;9.004;2024-02-21T02:17:36;99837.41;;;7.39;61.97
59063;BME280;44851;45.648;9.004;2024-02-21T02:20:02;99835.09;;;7.21;61.59
59063;BME280;44851;45.648;9.004;2024-02-21T02:22:28;99842.81;;;7.36;61.88
59063;BME280;44851;45.648;9.004;2024-02-21T02:24:55;99838.22;;;7.27;61.98
59063;BME280;44851;45.648;9.004;2024-02-21T02:27:20;99838.88;;;7.30;61.50
59063;BME280;44851;45.648;9.004;2024-02-21T02:29:48;99836.69;;;7.10;61.31
59063;BME280;44851;45.648;9.004;2024-02-21T02:32:13;99841.53;;;7.29;61.39
59063;BME280;44851;45.648;9.004;2024-02-21T02:34:38;99842.31;;;7.16;60.77
59063;BME280;44851;45.648;9.004;2024-02-21T02:37:04;99848.28;;;7.04;60.68
59063;BME280;44851;45.648;9.004;2024-02-21T02:39:29;99849.94;;;7.05;60.91
59063;BME280;44851;45.648;9.004;2024-02-21T02:41:54;99850.66;;;7.07;61.10
59063;BME280;44851;45.648;9.004;2024-02-21T02:44:20;99848.03;;;6.94;61.26
59063;BME280;44851;45.648;9.004;2024-02-21T02:46:45;99843.09;;;7.04;60.39
59063;BME280;44851;45.648;9.004;2024-02-21T02:49:10;99840.78;;;7.00;59.91
59063;BME280;44851;45.648;9.004;2024-02-21T02:51:36;99844.31;;;6.99;59.17
59063;BME280;44851;45.648;9.004;2024-02-21T02:54:02;99845.16;;;6.99;59.32
59063;BME280;44851;45.648;9.004;2024-02-21T02:56:28;99839.56;;;7.05;58.22
59063;BME280;44851;45.648;9.004;2024-02-21T02:58:54;99839.41;;;6.94;57.06
59063;BME280;44851;45.648;9.004;2024-02-21T03:01:19;99849.03;;;6.92;56.45
59063;BME280;44851;45.648;9.004;2024-02-21T03:03:44;99851.53;;;6.93;57.45
59063;BME280;44851;45.648;9.004;2024-02-21T03:06:12;99849.97;;;6.91;56.14
59063;BME280;44851;45.648;9.004;2024-02-21T03:08:37;99839.16;;;6.84;55.93
59063;BME280;44851;45.648;9.004;2024-02-21T03:11:03;99835.53;;;6.87;55.87
59063;BME280;44851;45.648;9.004;2024-02-21T03:13:28;99830.53;;;6.84;55.65
59063;BME280;44851;45.648;9.004;2024-02-21T03:15:54;99824.53;;;6.69;55.38
59063;BME280;44851;45.648;9.004;2024-02-21T03:18:19;99823.00;;;6.66;54.83
59063;BME280;44851;45.648;9.004;2024-02-21T03:20:44;99813.63;;;6.64;55.50
59063;BME280;44851;45.648;9.004;2024-02-21T03:23:10;99810.31;;;6.62;55.37
59063;BME280;44851;45.648;9.004;2024-02-21T03:25:35;99815.50;;;6.62;55.28
59063;BME280;44851;45.648;9.004;2024-02-21T03:28:00;99815.38;;;6.78;55.70
59063;BME280;44851;45.648;9.004;2024-02-21T03:30:27;99818.31;;;6.86;55.56
59063;BME280;44851;45.648;9.004;2024-02-21T03:32:52;99819.34;;;6.83;55.17
59063;BME280;44851;45.648;9.004;2024-02-21T03:35:17;99826.63;;;6.91;55.64
59063;BME280;44851;45.648;9.004;2024-02-21T03:37:45;99817.88;;;6.79;55.40
59063;BME280;44851;45.648;9.004;2024-02-21T03:40:10;99828.53;;;6.60;55.80
59063;BME280;44851;45.648;9.004;2024-02-21T03:42:36;99825.28;;;6.71;55.91
59063;BME280;44851;45.648;9.004;2024-02-21T03:45:01;99820.28;;;6.68;55.44
59063;BME280;44851;45.648;9.004;2024-02-21T03:47:26;99817.59;;;6.69;55.28
59063;BME280;44851;45.648;9.004;2024-02-21T03:49:52;99822.06;;;6.67;54.96
59063;BME280;44851;45.648;9.004;2024-02-21T03:52:17;99817.81;;;6.66;54.25
59063;BME280;44851;45.648;9.004;2024-02-21T03:54:42;99819.66;;;6.64;54.34
59063;BME280;44851;45.648;9.004;2024-02-21T03:57:08;99814.00;;;6.58;54.24
59063;BME280;44851;45.648;9.004;2024-02-21T03:59:33;99824.94;;;6.49;53.73
59063;BME280;44851;45.648;9.004;2024-02-21T04:01:58;99823.94;;;6.51;52.98
59063;BME280;44851;45.648;9.004;2024-02-21T04:04:24;99831.31;;;6.43;51.52
59063;BME280;44851;45.648;9.004;2024-02-21T04:06:50;99835.22;;;6.50;51.18
59063;BME280;44851;45.648;9.004;2024-02-21T04:09:16;99828.53;;;6.60;51.37
59063;BME280;44851;45.648;9.004;2024-02-21T04:11:41;99820.84;;;6.59;50.94
59063;BME280;44851;45.648;9.004;2024-02-21T04:14:07;99820.03;;;6.58;51.27
59063;BME280;44851;45.648;9.004;2024-02-21T04:16:32;99830.66;;;6.68;51.23
59063;BME280;44851;45.648;9.004;2024-02-21T04:18:58;99828.72;;;6.57;51.60
59063;BME280;44851;45.648;9.004;2024-02-21T04:21:23;99831.69;;;6.51;51.56
59063;BME280;44851;45.648;9.004;2024-02-21T04:23:48;99825.22;;;6.30;50.38
59063;BME280;44851;45.648;9.004;2024-02-21T04:26:14;99831.50;;;6.40;50.39
59063;BME280;44851;45.648;9.004;2024-02-21T04:28:39;99836.03;;;6.36;50.17
59063;BME280;44851;45.648;9.004;2024-02-21T04:31:04;99832.06;;;6.31;50.97
59063;BME280;44851;45.648;9.004;2024-02-21T04:33:30;99824.09;;;6.48;50.57
59063;BME280;44851;45.648;9.004;2024-02-21T04:35:55;99815.22;;;6.52;50.40
59063;BME280;44851;45.648;9.004;2024-02-21T04:38:21;99815.41;;;6.49;49.79
59063;BME280;44851;45.648;9.004;2024-02-21T04:40:46;99815.59;;;6.46;49.75
59063;BME280;44851;45.648;9.004;2024-02-21T04:43:11;99815.41;;;6.49;49.62
59063;BME280;44851;45.648;9.004;2024-02-21T04:45:36;99819.75;;;6.49;50.10
59063;BME280;44851;45.648;9.004;2024-02-21T04:48:02;99814.66;;;6.47;50.54
59063;BME280;44851;45.648;9.004;2024-02-21T04:50:27;99817.44;;;6.44;50.59
59063;BME280;44851;45.648;9.004;2024-02-21T04:52:53;99818.91;;;6.48;50.93
59063;BME280;44851;45.648;9.004;2024-02-21T04:55:18;99824.84;;;6.50;51.07
59063;BME280;44851;45.648;9.004;2024-02-21T04:57:43;99824.66;;;6.39;50.71
59063;BME280;44851;45.648;9.004;2024-02-21T05:00:09;99823.09;;;6.36;50.89
59063;BME280;44851;45.648;9.004;2024-02-21T05:02:34;99836.94;;;6.21;50.32
59063;BME280;44851;45.648;9.004;2024-02-21T05:05:00;99836.94;;;6.21;50.86
59063;BME280;44851;45.648;9.004;2024-02-21T05:07:25;99851.53;;;6.08;50.09
59063;BME280;44851;45.648;9.004;2024-02-21T05:09:51;99850.06;;;6.04;51.10
59063;BME280;44851;45.648;9.004;2024-02-21T05:12:16;99846.38;;;6.08;50.08
59063;BME280;44851;45.648;9.004;2024-02-21T05:14:41;99847.38;;;6.05;49.95
59063;BME280;44851;45.648;9.004;2024-02-21T05:17:07;99847.69;;;6.29;50.95
59063;BME280;44851;45.648;9.004;2024-02-21T05:19:32;99845.56;;;6.36;50.56
59063;BME280;44851;45.648;9.004;2024-02-21T05:21:58;99841.31;;;6.35;51.13
59063;BME280;44851;45.648;9.004;2024-02-21T05:24:24;99853.13;;;6.25;51.51
59063;BME280;44851;45.648;9.004;2024-02-21T05:26:49;99855.31;;;6.16;51.53
59063;BME280;44851;45.648;9.004;2024-02-21T05:29:14;99859.72;;;6.30;51.92
59063;BME280;44851;45.648;9.004;2024-02-21T05:31:55;99862.66;;;6.24;51.84
59063;BME280;44851;45.648;9.004;2024-02-21T05:34:21;99861.63;;;6.27;53.03
59063;BME280;44851;45.648;9.004;2024-02-21T05:36:47;99858.19;;;6.12;53.06
59063;BME280;44851;45.648;9.004;2024-02-21T05:39:15;99859.06;;;5.97;52.71
59063;BME280;44851;45.648;9.004;2024-02-21T05:41:41;99864.56;;;6.06;53.12
59063;BME280;44851;45.648;9.004;2024-02-21T05:44:07;99857.25;;;5.83;52.93
59063;BME280;44851;45.648;9.004;2024-02-21T05:46:32;99854.84;;;5.80;52.79
59063;BME280;44851;45.648;9.004;2024-02-21T05:48:57;99851.59;;;5.92;53.26
59063;BME280;44851;45.648;9.004;2024-02-21T05:51:23;99851.59;;;5.92;53.39
59063;BME280;44851;45.648;9.004;2024-02-21T05:53:48;99856.00;;;5.90;53.23
59063;BME280;44851;45.648;9.004;2024-02-21T05:56:14;99862.44;;;5.83;51.97
59063;BME280;44851;45.648;9.004;2024-02-21T05:58:40;99854.47;;;5.72;53.19
59063;BME280;44851;45.648;9.004;2024-02-21T06:01:06;99841.69;;;5.69;52.80
59063;BME280;44851;45.648;9.004;2024-02-21T06:03:34;99831.44;;;5.67;53.49
59063;BME280;44851;45.648;9.004;2024-02-21T06:06:00;99839.75;;;5.88;53.93
59063;BME280;44851;45.648;9.004;2024-02-21T06:08:25;99830.34;;;5.87;53.86
59063;BME280;44851;45.648;9.004;2024-02-21T06:10:51;99826.56;;;5.93;53.27
59063;BME280;44851;45.648;9.004;2024-02-21T06:13:19;99830.72;;;5.95;53.31
59063;BME280;44851;45.648;9.004;2024-02-21T06:15:46;99832.72;;;5.90;52.66
59063;BME280;44851;45.648;9.004;2024-02-21T06:18:11;99821.69;;;6.02;53.09
59063;BME280;44851;45.648;9.004;2024-02-21T06:20:37;99834.78;;;5.99;53.17
59063;BME280;44851;45.648;9.004;2024-02-21T06:23:05;99837.75;;;5.93;52.64
59063;BME280;44851;45.648;9.004;2024-02-21T06:25:30;99837.16;;;5.88;51.85
59063;BME280;44851;45.648;9.004;2024-02-21T06:27:56;99840.44;;;5.92;52.34
59063;BME280;44851;45.648;9.004;2024-02-21T06:30:21;99848.66;;;5.98;52.68
59063;BME280;44851;45.648;9.004;2024-02-21T06:32:46;99844.03;;;6.03;52.37
59063;BME280;44851;45.648;9.004;2024-02-21T06:35:12;99840.81;;;6.14;52.25
59063;BME280;44851;45.648;9.004;2024-02-21T06:37:37;99852.38;;;6.08;52.48
59063;BME280;44851;45.648;9.004;2024-02-21T06:40:03;99857.91;;;6.02;51.09
59063;BME280;44851;45.648;9.004;2024-02-21T06:42:29;99854.50;;;6.16;52.39
59063;BME280;44851;45.648;9.004;2024-02-21T06:44:54;99852.47;;;6.21;51.96
59063;BME280;44851;45.648;9.004;2024-02-21T06:47:21;99857.66;;;6.21;51.54
59063;BME280;44851;45.648;9.004;2024-02-21T06:49:50;99854.78;;;6.26;51.06
59063;BME280;44851;45.648;9.004;2024-02-21T06:52:18;99861.66;;;6.41;52.30
59063;BME280;44851;45.648;9.004;2024-02-21T06:54:48;99860.06;;;6.38;52.02
59063;BME280;44851;45.648;9.004;2024-02-21T06:57:13;99871.28;;;6.53;51.94
59063;BME280;44851;45.648;9.004;2024-02-21T06:59:40;99879.88;;;6.54;49.68
59063;BME280;44851;45.648;9.004;2024-02-21T07:02:05;99880.31;;;6.60;49.21
59063;BME280;44851;45.648;9.004;2024-02-21T07:04:30;99876.91;;;6.74;49.42
59063;BME280;44851;45.648;9.004;2024-02-21T07:06:56;99889.22;;;6.85;48.36
59063;BME280;44851;45.648;9.004;2024-02-21T07:09:21;99891.81;;;6.99;50.31
59063;BME280;44851;45.648;9.004;2024-02-21T07:11:46;99886.78;;;6.96;47.83
59063;BME280;44851;45.648;9.004;2024-02-21T07:14:14;99885.47;;;7.17;48.69
59063;BME280;44851;45.648;9.004;2024-02-21T07:16:39;99893.41;;;7.29;50.52
59063;BME280;44851;45.648;9.004;2024-02-21T07:19:05;99892.00;;;7.37;49.46
59063;BME280;44851;45.648;9.004;2024-02-21T07:21:30;99903.44;;;7.47;48.69
59063;BME280;44851;45.648;9.004;2024-02-21T07:23:55;99896.59;;;7.46;48.89
59063;BME280;44851;45.648;9.004;2024-02-21T07:26:21;99903.72;;;7.57;49.11
59063;BME280;44851;45.648;9.004;2024-02-21T07:28:47;99904.84;;;7.66;49.73
59063;BME280;44851;45.648;9.004;2024-02-21T07:31:12;99909.75;;;7.70;48.14
59063;BME280;44851;45.648;9.004;2024-02-21T07:33:37;99915.22;;;7.80;48.74
59063;BME280;44851;45.648;9.004;2024-02-21T07:36:10;99922.31;;;7.91;50.46
59063;BME280;44851;45.648;9.004;2024-02-21T07:38:36;99912.13;;;7.88;48.99
59063;BME280;44851;45.648;9.004;2024-02-21T07:41:01;99919.59;;;7.92;48.07
59063;BME280;44851;45.648;9.004;2024-02-21T07:43:26;99916.72;;;7.97;45.80
59063;BME280;44851;45.648;9.004;2024-02-21T07:45:52;99932.50;;;7.94;46.99
59063;BME280;44851;45.648;9.004;2024-02-21T07:48:21;99928.16;;;8.07;48.46
59063;BME280;44851;45.648;9.004;2024-02-21T07:50:49;99933.16;;;8.10;48.19
59063;BME280;44851;45.648;9.004;2024-02-21T07:53:15;99941.16;;;8.07;46.63
59063;BME280;44851;45.648;9.004;2024-02-21T07:55:40;99938.69;;;8.18;48.36
59063;BME280;44851;45.648;9.004;2024-02-21T07:58:06;99933.41;;;8.33;51.45
59063;BME280;44851;45.648;9.004;2024-02-21T08:00:31;99941.72;;;8.38;52.78
59063;BME280;44851;45.648;9.004;2024-02-21T08:02:57;99939.34;;;8.47;52.88
59063;BME280;44851;45.648;9.004;2024-02-21T08:05:22;99937.78;;;8.58;52.52
59063;BME280;44851;45.648;9.004;2024-02-21T08:07:48;99937.56;;;8.73;50.36
59063;BME280;44851;45.648;9.004;2024-02-21T08:10:13;99929.97;;;8.83;50.20
59063;BME280;44851;45.648;9.004;2024-02-21T08:12:38;99928.28;;;9.08;50.30
59063;BME280;44851;45.648;9.004;2024-02-21T08:15:04;99926.66;;;9.30;47.70
59063;BME280;44851;45.648;9.004;2024-02-21T08:17:30;99924.19;;;9.66;47.53
59063;BME280;44851;45.648;9.004;2024-02-21T08:19:55;99919.41;;;9.83;47.61
59063;BME280;44851;45.648;9.004;2024-02-21T08:22:20;99910.03;;;10.05;46.46
59063;BME280;44851;45.648;9.004;2024-02-21T08:24:46;99911.94;;;10.14;45.50
59063;BME280;44851;45.648;9.004;2024-02-21T08:27:11;99905.38;;;10.44;46.81
59063;BME280;44851;45.648;9.004;2024-02-21T08:29:36;99905.41;;;10.55;42.09
59063;BME280;44851;45.648;9.004;2024-02-21T08:32:02;99898.66;;;10.64;41.11
59063;BME280;44851;45.648;9.004;2024-02-21T08:34:27;99905.19;;;10.92;42.01
59063;BME280;44851;45.648;9.004;2024-02-21T08:36:55;99905.09;;;11.04;41.68
59063;BME280;44851;45.648;9.004;2024-02-21T08:39:20;99902.66;;;11.24;42.21
59063;BME280;44851;45.648;9.004;2024-02-21T08:41:46;99908.00;;;11.33;40.76
59063;BME280;44851;45.648;9.004;2024-02-21T08:44:11;99913.25;;;11.65;42.80
59063;BME280;44851;45.648;9.004;2024-02-21T08:46:37;99907.09;;;11.87;42.42
59063;BME280;44851;45.648;9.004;2024-02-21T08:49:05;99908.94;;;12.08;42.89
59063;BME280;44851;45.648;9.004;2024-02-21T08:51:31;99903.78;;;11.85;41.21
59063;BME280;44851;45.648;9.004;2024-02-21T08:53:56;99910.56;;;11.99;41.08
59063;BME280;44851;45.648;9.004;2024-02-21T08:56:21;99897.97;;;12.14;39.61
59063;BME280;44851;45.648;9.004;2024-02-21T08:58:47;99898.47;;;12.50;42.87
59063;BME280;44851;45.648;9.004;2024-02-21T09:01:12;99897.75;;;12.68;40.78
59063;BME280;44851;45.648;9.004;2024-02-21T09:03:38;99897.88;;;12.98;40.77
59063;BME280;44851;45.648;9.004;2024-02-21T09:06:05;99904.84;;;13.18;41.74
59063;BME280;44851;45.648;9.004;2024-02-21T09:08:31;99902.69;;;13.33;40.82
59063;BME280;44851;45.648;9.004;2024-02-21T09:10:56;99914.28;;;13.50;40.96
59063;BME280;44851;45.648;9.004;2024-02-21T09:13:22;99911.56;;;13.70;40.03
59063;BME280;44851;45.648;9.004;2024-02-21T09:15:48;99912.66;;;13.87;40.06
59063;BME280;44851;45.648;9.004;2024-02-21T09:18:15;99916.25;;;13.96;39.89
59063;BME280;44851;45.648;9.004;2024-02-21T09:20:40;99924.22;;;13.94;37.59
59063;BME280;44851;45.648;9.004;2024-02-21T09:23:06;99919.81;;;14.14;40.04
59063;BME280;44851;45.648;9.004;2024-02-21T09:25:31;99920.06;;;14.11;37.10
59063;BME280;44851;45.648;9.004;2024-02-21T09:27:57;99912.38;;;13.71;37.52
59063;BME280;44851;45.648;9.004;2024-02-21T09:30:23;99916.25;;;13.86;40.94
59063;BME280;44851;45.648;9.004;2024-02-21T09:32:48;99912.22;;;13.63;37.15
59063;BME280;44851;45.648;9.004;2024-02-21T09:35:14;99908.75;;;13.53;38.31
59063;BME280;44851;45.648;9.004;2024-02-21T09:37:40;99916.03;;;13.30;38.71
59063;BME280;44851;45.648;9.004;2024-02-21T09:40:06;99910.25;;;13.36;40.05
59063;BME280;44851;45.648;9.004;2024-02-21T09:42:41;99913.91;;;13.14;38.44
59063;BME280;44851;45.648;9.004;2024-02-21T09:45:22;99914.50;;;13.17;37.78
59063;BME280;44851;45.648;9.004;2024-02-21T09:50:26;99918.25;;;13.34;38.94
59063;BME280;44851;45.648;9.004;2024-02-21T09:52:53;99914.00;;;13.43;38.78
59063;BME280;44851;45.648;9.004;2024-02-21T09:55:20;99910.50;;;13.23;38.17
59063;BME280;44851;45.648;9.004;2024-02-21T09:57:45;99924.81;;;13.19;37.32
59063;BME280;44851;45.648;9.004;2024-02-21T10:00:11;99919.66;;;13.48;38.17
59063;BME280;44851;45.648;9.004;2024-02-21T10:02:39;99924.25;;;13.75;37.54
59063;BME280;44851;45.648;9.004;2024-02-21T10:05:04;99929.47;;;13.94;38.53
59063;BME280;44851;45.648;9.004;2024-02-21T10:07:33;99929.50;;;13.75;37.66
59063;BME280;44851;45.648;9.004;2024-02-21T10:10:02;99933.06;;;13.64;38.22
59063;BME280;44851;45.648;9.004;2024-02-21T10:12:28;99935.78;;;13.63;37.89
59063;BME280;44851;45.648;9.004;2024-02-21T10:15:03;99938.34;;;13.24;36.15
59063;BME280;44851;45.648;9.004;2024-02-21T10:17:28;99935.25;;;13.59;37.68
59063;BME280;44851;45.648;9.004;2024-02-21T10:19:54;99934.72;;;13.75;37.44
59063;BME280;44851;45.648;9.004;2024-02-21T10:22:19;99928.66;;;13.74;38.04
59063;BME280;44851;45.648;9.004;2024-02-21T10:24:48;99933.06;;;13.93;37.90
59063;BME280;44851;45.648;9.004;2024-02-21T10:27:14;99925.75;;;14.26;37.13
59063;BME280;44851;45.648;9.004;2024-02-21T10:29:40;99922.81;;;14.48;36.59
59063;BME280;44851;45.648;9.004;2024-02-21T10:32:13;99925.91;;;14.81;36.70
59063;BME280;44851;45.648;9.004;2024-02-21T10:34:40;99918.81;;;14.91;37.89
59063;BME280;44851;45.648;9.004;2024-02-21T10:37:07;99911.78;;;14.92;35.71
59063;BME280;44851;45.648;9.004;2024-02-21T10:39:34;99910.84;;;14.83;34.43
59063;BME280;44851;45.648;9.004;2024-02-21T10:42:03;99908.75;;;15.24;38.20
59063;BME280;44851;45.648;9.004;2024-02-21T10:44:30;99901.09;;;15.30;36.42
59063;BME280;44851;45.648;9.004;2024-02-21T10:46:59;99900.00;;;15.51;35.55
59063;BME280;44851;45.648;9.004;2024-02-21T10:49:26;99900.06;;;15.41;35.17
59063;BME280;44851;45.648;9.004;2024-02-21T10:52:03;99899.47;;;15.83;36.58
59063;BME280;44851;45.648;9.004;2024-02-21T10:57:16;99882.88;;;15.47;35.60
59063;BME280;44851;45.648;9.004;2024-02-21T10:59:44;99883.56;;;15.67;35.88
59063;BME280;44851;45.648;9.004;2024-02-21T11:02:09;99876.19;;;15.88;37.61
59063;BME280;44851;45.648;9.004;2024-02-21T11:04:35;99871.22;;;16.29;38.47
59063;BME280;44851;45.648;9.004;2024-02-21T11:07:03;99857.25;;;16.54;39.32
59063;BME280;44851;45.648;9.004;2024-02-21T11:09:30;99865.41;;;16.43;37.53
59063;BME280;44851;45.648;9.004;2024-02-21T11:11:57;99861.50;;;16.47;36.84
59063;BME280;44851;45.648;9.004;2024-02-21T11:14:26;99857.06;;;16.22;35.63
59063;BME280;44851;45.648;9.004;2024-02-21T11:16:52;99854.66;;;16.11;35.92
59063;BME280;44851;45.648;9.004;2024-02-21T11:19:27;99851.63;;;16.49;35.81
59063;BME280;44851;45.648;9.004;2024-02-21T11:21:53;99845.09;;;16.61;35.62
59063;BME280;44851;45.648;9.004;2024-02-21T11:24:33;99845.34;;;16.76;35.82
59063;BME280;44851;45.648;9.004;2024-02-21T11:27:15;99834.69;;;16.86;35.61
59063;BME280;44851;45.648;9.004;2024-02-21T11:29:45;99832.97;;;17.11;35.22
59063;BME280;44851;45.648;9.004;2024-02-21T11:32:11;99823.50;;;16.84;35.70
59063;BME280;44851;45.648;9.004;2024-02-21T11:34:37;99809.03;;;16.96;34.94
59063;BME280;44851;45.648;9.004;2024-02-21T11:37:13;99811.09;;;17.10;34.63
59063;BME280;44851;45.648;9.004;2024-02-21T11:39:40;99806.09;;;17.07;33.73
59063;BME280;44851;45.648;9.004;2024-02-21T11:42:07;99803.13;;;16.94;34.23
59063;BME280;44851;45.648;9.004;2024-02-21T11:44:36;99802.19;;;17.11;35.07
59063;BME280;44851;45.648;9.004;2024-02-21T11:47:05;99799.94;;;17.49;36.20
59063;BME280;44851;45.648;9.004;2024-02-21T11:49:38;99798.44;;;17.55;36.24
59063;BME280;44851;45.648;9.004;2024-02-21T11:52:06;99788.34;;;17.09;35.81
59063;BME280;44851;45.648;9.004;2024-02-21T11:54:33;99783.38;;;17.06;36.53
59063;BME280;44851;45.648;9.004;2024-02-21T11:56:59;99772.34;;;16.95;36.75
59063;BME280;44851;45.648;9.004;2024-02-21T11:59:25;99773.69;;;17.15;37.75
59063;BME280;44851;45.648;9.004;2024-02-21T12:01:50;99769.13;;;17.33;38.21
59063;BME280;44851;45.648;9.004;2024-02-21T12:04:20;99762.34;;;17.47;37.86
59063;BME280;44851;45.648;9.004;2024-02-21T12:06:45;99751.88;;;16.80;38.32
59063;BME280;44851;45.648;9.004;2024-02-21T12:09:15;99742.94;;;17.32;37.76
59063;BME280;44851;45.648;9.004;2024-02-21T12:11:41;99746.03;;;17.52;37.71
59063;BME280;44851;45.648;9.004;2024-02-21T12:14:06;99738.13;;;17.68;37.11
59063;BME280;44851;45.648;9.004;2024-02-21T12:16:33;99733.97;;;17.74;37.49
59063;BME280;44851;45.648;9.004;2024-02-21T12:18:59;99734.31;;;17.79;37.23
59063;BME280;44851;45.648;9.004;2024-02-21T12:21:26;99739.28;;;17.57;36.21
59063;BME280;44851;45.648;9.004;2024-02-21T12:23:56;99728.38;;;17.77;35.92
59063;BME280;44851;45.648;9.004;2024-02-21T12:26:22;99723.13;;;17.77;36.38
59063;BME280;44851;45.648;9.004;2024-02-21T12:28:47;99737.31;;;17.51;36.07
59063;BME280;44851;45.648;9.004;2024-02-21T12:31:13;99727.94;;;17.24;35.70
59063;BME280;44851;45.648;9.004;2024-02-21T12:33:39;99726.78;;;17.51;36.51
59063;BME280;44851;45.648;9.004;2024-02-21T12:36:04;99719.84;;;17.50;36.64
59063;BME280;44851;45.648;9.004;2024-02-21T12:38:30;99720.53;;;17.28;36.53
59063;BME280;44851;45.648;9.004;2024-02-21T12:40:55;99709.31;;;17.09;36.46
59063;BME280;44851;45.648;9.004;2024-02-21T12:43:22;99709.50;;;17.16;37.24
59063;BME280;44851;45.648;9.004;2024-02-21T12:45:48;99711.81;;;17.44;38.05
59063;BME280;44851;45.648;9.004;2024-02-21T12:48:14;99696.97;;;17.59;38.47
59063;BME280;44851;45.648;9.004;2024-02-21T12:50:40;99696.28;;;17.57;37.25
59063;BME280;44851;45.648;9.004;2024-02-21T12:53:05;99688.19;;;17.75;37.30
59063;BME280;44851;45.648;9.004;2024-02-21T12:55:31;99684.56;;;17.76;36.21
59063;BME280;44851;45.648;9.004;2024-02-21T12:57:56;99683.91;;;17.65;36.72
59063;BME280;44851;45.648;9.004;2024-02-21T13:00:27;99676.50;;;17.69;35.60
59063;BME280;44851;45.648;9.004;2024-02-21T13:02:53;99665.72;;;17.87;36.73
59063;BME280;44851;45.648;9.004;2024-02-21T13:05:18;99667.75;;;17.69;35.61
59063;BME280;44851;45.648;9.004;2024-02-21T13:07:43;99656.31;;;17.92;34.91